createdAt,value
2018-04-27T00:01:05.604Z,21.47
2018-04-27T00:03:33.191Z,22.43
2018-04-27T00:06:00.802Z,24.23
2018-04-27T00:08:28.428Z,15.90
2018-04-27T00:10:56.047Z,23.60
2018-04-27T00:13:23.634Z,16.70
2018-04-27T00:15:51.368Z,14.37
2018-04-27T00:18:18.964Z,17.90
2018-04-27T00:20:46.568Z,22.93
2018-04-27T00:23:14.244Z,26.63
2018-04-27T00:25:41.912Z,22.50
2018-04-27T00:28:09.582Z,17.20
2018-04-27T00:30:37.233Z,20.77
2018-04-27T00:33:04.904Z,18.93
2018-04-27T00:35:32.544Z,17.77
2018-04-27T00:38:00.221Z,17.43
2018-04-27T00:40:27.882Z,18.93
2018-04-27T00:42:55.548Z,16.90
2018-04-27T00:45:23.158Z,15.80
2018-04-27T00:47:51.001Z,20.23
2018-04-27T00:50:18.745Z,20.40
2018-04-27T00:52:58.084Z,17.07
2018-04-27T00:55:25.666Z,16.30
2018-04-27T00:57:53.252Z,18.60
2018-04-27T01:00:21.069Z,18.40
2018-04-27T01:02:48.651Z,15.67
2018-04-27T01:05:16.233Z,18.83
2018-04-27T01:07:43.856Z,18.40
2018-04-27T01:10:11.441Z,16.50
2018-04-27T01:12:39.033Z,18.13
2018-04-27T01:15:06.651Z,20.57
2018-04-27T01:17:34.239Z,16.63
2018-04-27T01:20:01.856Z,19.87
2018-04-27T01:22:29.480Z,17.37
2018-04-27T01:24:57.054Z,26.50
2018-04-27T01:27:24.631Z,23.47
2018-04-27T01:29:52.389Z,26.93
2018-04-27T01:32:20.050Z,26.43
2018-04-27T01:34:47.635Z,25.23
2018-04-27T01:37:15.258Z,15.43
2018-04-27T01:39:42.851Z,32.67
2018-04-27T01:42:10.434Z,21.33
2018-04-27T01:44:38.051Z,29.73
2018-04-27T01:47:05.819Z,18.23
2018-04-27T01:49:33.677Z,22.20
2018-04-27T01:52:01.305Z,22.80
2018-04-27T01:54:28.911Z,24.33
2018-04-27T01:56:56.486Z,22.90
2018-04-27T01:59:24.148Z,18.30
2018-04-27T02:01:51.723Z,16.63
2018-04-27T02:04:19.309Z,20.30
2018-04-27T02:06:46.940Z,26.63
2018-04-27T02:09:14.522Z,18.53
2018-04-27T02:11:42.109Z,23.30
2018-04-27T02:14:09.737Z,24.03
2018-04-27T02:16:37.321Z,24.10
2018-04-27T02:19:04.898Z,23.03
2018-04-27T02:21:32.508Z,32.23
2018-04-27T02:24:00.092Z,26.83
2018-04-27T02:26:27.675Z,20.90
2018-04-27T02:28:55.296Z,24.20
2018-04-27T02:31:22.889Z,28.63
2018-04-27T02:33:50.463Z,24.60
2018-04-27T02:36:18.092Z,29.00
2018-04-27T02:38:45.671Z,20.03
2018-04-27T02:41:13.262Z,20.40
2018-04-27T02:43:40.879Z,22.77
2018-04-27T02:46:08.456Z,18.13
2018-04-27T02:48:36.042Z,22.17
2018-04-27T02:51:03.658Z,21.03
2018-04-27T02:53:31.288Z,28.73
2018-04-27T02:55:58.934Z,22.90
2018-04-27T02:58:26.574Z,23.90
2018-04-27T03:00:54.253Z,26.80
2018-04-27T03:03:21.830Z,17.37
2018-04-27T03:05:49.448Z,16.50
2018-04-27T03:08:17.050Z,21.20
2018-04-27T03:10:44.635Z,25.60
2018-04-27T03:13:12.265Z,16.20
2018-04-27T03:15:39.852Z,17.70
2018-04-27T03:18:07.446Z,21.40
2018-04-27T03:20:35.059Z,21.70
2018-04-27T03:23:02.653Z,27.20
2018-04-27T03:25:30.285Z,17.97
2018-04-27T03:27:57.912Z,22.67
2018-04-27T03:30:25.509Z,34.83
2018-04-27T03:32:53.094Z,20.13
2018-04-27T03:35:20.725Z,21.80
2018-04-27T03:37:48.305Z,19.97
2018-04-27T03:40:15.889Z,27.43
2018-04-27T03:42:43.521Z,24.43
2018-04-27T03:45:11.113Z,21.30
2018-04-27T03:47:38.704Z,22.33
2018-04-27T03:52:39.347Z,15.00
2018-04-27T03:55:06.935Z,24.37
2018-04-27T03:57:34.544Z,20.83
2018-04-27T04:00:13.913Z,15.63
2018-04-27T04:02:53.077Z,24.60
2018-04-27T04:05:39.339Z,24.87
2018-04-27T04:08:06.919Z,20.10
2018-04-27T04:10:34.870Z,30.60
2018-04-27T04:13:02.475Z,24.00
2018-04-27T04:15:30.201Z,21.93
2018-04-27T04:17:57.778Z,20.70
2018-04-27T04:20:25.409Z,15.37
2018-04-27T04:22:52.989Z,19.97
2018-04-27T04:25:20.658Z,16.27
2018-04-27T04:27:48.278Z,15.13
2018-04-27T04:30:15.873Z,24.57
2018-04-27T04:32:43.451Z,14.57
2018-04-27T04:35:11.070Z,19.23
2018-04-27T04:37:38.663Z,43.97
2018-04-27T04:40:06.245Z,19.53
2018-04-27T04:42:33.884Z,29.83
2018-04-27T04:45:01.487Z,21.10
2018-04-27T04:47:29.082Z,15.87
2018-04-27T04:49:56.729Z,56.13
2018-04-27T04:52:24.376Z,27.37
2018-04-27T04:54:51.973Z,30.00
2018-04-27T04:57:19.598Z,15.50
2018-04-27T04:59:47.192Z,22.03
2018-04-27T05:02:14.780Z,21.83
2018-04-27T05:04:42.396Z,40.77
2018-04-27T05:07:09.988Z,20.33
2018-04-27T05:09:37.759Z,17.50
2018-04-27T05:12:05.384Z,19.70
2018-04-27T05:14:32.963Z,22.03
2018-04-27T05:17:00.545Z,22.20
2018-04-27T05:19:28.394Z,27.70
2018-04-27T05:21:56.069Z,20.00
2018-04-27T05:24:23.638Z,22.43
2018-04-27T05:26:51.243Z,38.37
2018-04-27T05:29:19.055Z,28.80
2018-04-27T05:31:46.709Z,19.00
2018-04-27T05:34:14.341Z,27.83
2018-04-27T05:36:41.922Z,43.20
2018-04-27T05:39:09.502Z,56.53
2018-04-27T05:41:37.119Z,54.57
2018-04-27T05:44:04.825Z,53.27
2018-04-27T05:46:32.471Z,59.40
2018-04-27T05:49:00.341Z,67.07
2018-04-27T05:51:27.893Z,29.50
2018-04-27T05:53:55.488Z,22.63
2018-04-27T05:56:23.108Z,23.60
2018-04-27T05:58:50.697Z,27.23
2018-04-27T06:01:18.508Z,32.97
2018-04-27T06:03:57.795Z,20.90
2018-04-27T06:06:25.380Z,17.10
2018-04-27T06:08:52.955Z,14.83
2018-04-27T06:11:20.654Z,23.43
2018-04-27T06:13:48.227Z,12.90
2018-04-27T06:16:15.805Z,10.77
2018-04-27T06:18:43.420Z,11.90
2018-04-27T06:21:11.005Z,17.03
2018-04-27T06:23:38.597Z,14.63
2018-04-27T06:26:06.213Z,11.03
2018-04-27T06:28:49.585Z,15.73
2018-04-27T06:31:17.193Z,8.70
2018-04-27T06:33:44.783Z,16.17
2018-04-27T06:36:12.354Z,19.03
2018-04-27T06:38:40.015Z,15.87
2018-04-27T06:41:07.724Z,12.90
2018-04-27T06:43:35.313Z,9.13
2018-04-27T06:46:02.953Z,9.20
2018-04-27T06:48:30.542Z,13.37
2018-04-27T06:50:58.928Z,14.77
2018-04-27T06:53:26.567Z,10.37
2018-04-27T06:55:54.152Z,14.50
2018-04-27T06:58:21.727Z,23.50
2018-04-27T07:00:49.358Z,17.63
2018-04-27T07:03:16.941Z,11.50
2018-04-27T07:05:44.505Z,13.40
2018-04-27T07:08:12.154Z,20.37
2018-04-27T07:10:39.727Z,17.17
2018-04-27T07:13:07.341Z,16.63
2018-04-27T07:15:35.012Z,25.87
2018-04-27T07:18:02.590Z,16.30
2018-04-27T07:20:30.184Z,14.03
2018-04-27T07:22:57.806Z,16.43
2018-04-27T07:25:25.380Z,9.60
2018-04-27T07:27:52.958Z,10.90
2018-04-27T07:30:20.610Z,15.10
2018-04-27T07:32:48.237Z,7.70
2018-04-27T07:35:15.849Z,10.80
2018-04-27T07:37:43.488Z,9.50
2018-04-27T07:40:11.055Z,6.53
2018-04-27T07:42:38.664Z,13.87
2018-04-27T07:45:06.293Z,15.20
2018-04-27T07:47:33.890Z,21.77
2018-04-27T07:50:01.470Z,12.00
2018-04-27T07:52:29.157Z,22.87
2018-04-27T07:54:56.773Z,28.53
2018-04-27T07:57:24.407Z,16.10
2018-04-27T07:59:52.017Z,11.43
2018-04-27T08:02:19.670Z,17.67
2018-04-27T08:04:47.295Z,13.17
2018-04-27T08:07:14.927Z,10.27
2018-04-27T08:09:42.595Z,23.13
2018-04-27T08:12:10.183Z,11.60
2018-04-27T08:14:37.839Z,11.83
2018-04-27T08:17:05.449Z,23.10
2018-04-27T08:19:33.023Z,14.33
2018-04-27T08:22:00.794Z,17.50
2018-04-27T08:24:28.423Z,12.70
2018-04-27T08:26:56.180Z,14.43
2018-04-27T08:29:23.925Z,16.73
2018-04-27T08:31:51.801Z,15.43
2018-04-27T08:34:19.467Z,12.00
2018-04-27T08:36:47.211Z,20.17
2018-04-27T08:39:14.908Z,15.77
2018-04-27T08:41:42.681Z,14.57
2018-04-27T08:44:10.395Z,11.03
2018-04-27T08:46:38.094Z,10.70
2018-04-27T08:49:05.947Z,10.33
2018-04-27T08:51:33.703Z,29.63
2018-04-27T08:54:01.409Z,50.23
2018-04-27T08:56:29.085Z,22.80
2018-04-27T08:58:56.798Z,29.65
2018-04-27T09:01:24.458Z,26.83
2018-04-27T09:03:52.153Z,24.07
2018-04-27T09:06:19.941Z,10.30
2018-04-27T09:08:47.645Z,11.50
2018-04-27T09:11:15.497Z,7.40
2018-04-27T09:13:43.203Z,12.77
2018-04-27T09:16:10.911Z,13.93
2018-04-27T09:18:38.609Z,14.70
2018-04-27T09:21:06.355Z,9.57
2018-04-27T09:23:34.033Z,14.83
2018-04-27T09:26:01.700Z,16.17
2018-04-27T09:28:29.440Z,11.00
2018-04-27T09:30:57.142Z,36.27
2018-04-27T09:33:24.816Z,7.80
2018-04-27T09:35:52.555Z,12.60
2018-04-27T09:38:20.232Z,14.30
2018-04-27T09:40:47.931Z,13.13
2018-04-27T09:43:15.654Z,22.20
2018-04-27T09:45:43.326Z,16.87
2018-04-27T09:48:11.100Z,21.60
2018-04-27T09:50:38.820Z,13.90
2018-04-27T09:53:06.541Z,13.70
2018-04-27T09:55:34.281Z,11.83
2018-04-27T09:58:02.017Z,31.10
2018-04-27T10:00:29.696Z,16.07
2018-04-27T10:02:57.583Z,19.70
2018-04-27T10:05:25.295Z,17.50
2018-04-27T10:07:52.964Z,16.93
2018-04-27T10:10:20.656Z,14.67
2018-04-27T10:12:48.287Z,9.37
2018-04-27T10:15:15.901Z,10.50
2018-04-27T10:17:43.519Z,12.37
2018-04-27T10:20:11.153Z,11.60
2018-04-27T10:22:38.738Z,18.13
2018-04-27T10:25:06.362Z,31.23
2018-04-27T10:27:34.017Z,16.83
2018-04-27T10:30:01.599Z,9.60
2018-04-27T10:32:29.193Z,16.20
2018-04-27T10:34:57.016Z,24.50
2018-04-27T10:37:24.665Z,14.07
2018-04-27T10:39:52.261Z,16.20
2018-04-27T10:42:19.877Z,14.70
2018-04-27T10:44:47.511Z,18.00
2018-04-27T10:47:15.155Z,12.80
2018-04-27T10:49:42.824Z,11.33
2018-04-27T10:52:10.406Z,11.90
2018-04-27T10:54:37.988Z,11.93
2018-04-27T10:57:05.609Z,24.80
2018-04-27T10:59:33.249Z,7.90
2018-04-27T11:02:00.842Z,17.20
2018-04-27T11:04:28.459Z,34.83
2018-04-27T11:06:56.090Z,10.37
2018-04-27T11:09:23.738Z,17.40
2018-04-27T11:11:51.361Z,8.80
2018-04-27T11:14:18.950Z,9.23
2018-04-27T11:16:46.598Z,18.90
2018-04-27T11:19:14.196Z,15.43
2018-04-27T11:21:41.783Z,22.83
2018-04-27T11:24:09.435Z,17.83
2018-04-27T11:26:37.054Z,9.77
2018-04-27T11:29:04.636Z,17.70
2018-04-27T11:31:32.224Z,11.10
2018-04-27T11:33:59.883Z,16.97
2018-04-27T11:36:27.460Z,19.35
2018-04-27T11:38:55.077Z,18.30
2018-04-27T11:41:22.707Z,13.97
2018-04-27T11:43:50.336Z,23.00
2018-04-27T11:46:17.975Z,10.10
2018-04-27T11:48:45.646Z,14.60
2018-04-27T11:51:13.236Z,15.20
2018-04-27T11:53:40.933Z,24.37
2018-04-27T11:56:08.573Z,9.93
2018-04-27T11:58:36.187Z,26.33
2018-04-27T12:01:03.836Z,26.93
2018-04-27T12:03:31.451Z,8.20
2018-04-27T12:05:59.077Z,8.57
2018-04-27T12:08:26.664Z,18.93
2018-04-27T12:10:54.266Z,16.70
2018-04-27T12:13:21.861Z,11.23
2018-04-27T12:15:49.490Z,13.17
2018-04-27T12:18:17.109Z,11.33
2018-04-27T12:20:44.701Z,20.97
2018-04-27T12:23:12.291Z,10.60
2018-04-27T12:25:39.898Z,7.37
2018-04-27T12:28:07.488Z,10.60
2018-04-27T12:30:35.065Z,7.07
2018-04-27T12:33:02.684Z,13.23
2018-04-27T12:35:30.262Z,11.53
2018-04-27T12:37:57.853Z,8.40
2018-04-27T12:40:25.463Z,18.03
2018-04-27T12:42:53.064Z,12.67
2018-04-27T12:45:20.657Z,12.93
2018-04-27T12:47:48.270Z,10.17
2018-04-27T12:50:15.846Z,15.20
2018-04-27T12:52:43.440Z,12.17
2018-04-27T12:55:11.092Z,8.40
2018-04-27T12:57:38.698Z,5.00
2018-04-27T13:00:06.298Z,11.03
2018-04-27T13:02:33.943Z,6.67
2018-04-27T13:05:01.558Z,9.60
2018-04-27T13:07:29.142Z,7.73
2018-04-27T13:09:56.748Z,16.97
2018-04-27T13:12:24.395Z,19.00
2018-04-27T13:14:51.973Z,28.33
2018-04-27T13:17:19.599Z,16.53
2018-04-27T13:19:47.189Z,15.77
2018-04-27T13:22:14.808Z,17.87
2018-04-27T13:24:42.432Z,18.03
2018-04-27T13:27:10.008Z,13.97
2018-04-27T13:29:37.597Z,13.17
2018-04-27T13:32:05.228Z,18.93
2018-04-27T13:34:32.825Z,17.47
2018-04-27T13:37:00.399Z,22.57
2018-04-27T13:39:28.029Z,19.30
2018-04-27T13:41:55.638Z,17.20
2018-04-27T13:44:23.215Z,16.63
2018-04-27T13:46:50.890Z,18.00
2018-04-27T13:49:18.471Z,13.80
2018-04-27T13:51:46.096Z,18.17
2018-04-27T13:54:13.708Z,12.57
2018-04-27T13:56:41.295Z,14.27
2018-04-27T13:59:08.872Z,23.30
2018-04-27T14:01:36.489Z,14.23
2018-04-27T14:04:04.071Z,11.37
2018-04-27T14:06:31.668Z,22.50
2018-04-27T14:08:59.342Z,15.20
2018-04-27T14:11:26.994Z,37.83
2018-04-27T14:13:54.583Z,17.93
2018-04-27T14:16:22.302Z,16.30
2018-04-27T14:18:49.866Z,12.63
2018-04-27T14:21:17.461Z,11.73
2018-04-27T14:23:45.083Z,13.10
2018-04-27T14:26:12.649Z,14.07
2018-04-27T14:28:40.208Z,28.77
2018-04-27T14:31:07.819Z,18.37
2018-04-27T14:33:35.461Z,53.53
2018-04-27T14:36:03.060Z,36.60
2018-04-27T14:38:30.669Z,27.23
2018-04-27T14:40:58.246Z,13.33
2018-04-27T14:43:25.854Z,23.30
2018-04-27T14:45:53.460Z,13.80
2018-04-27T14:48:21.040Z,29.53
2018-04-27T14:50:48.617Z,22.20
2018-04-27T14:53:16.249Z,41.83
2018-04-27T14:55:43.836Z,21.50
2018-04-27T14:58:11.463Z,18.97
2018-04-27T15:00:39.102Z,22.47
2018-04-27T15:03:06.726Z,27.63
2018-04-27T15:05:34.305Z,18.00
2018-04-27T15:08:01.915Z,18.63
2018-04-27T15:10:29.488Z,34.97
2018-04-27T15:12:57.093Z,26.97
2018-04-27T15:15:24.696Z,20.13
2018-04-27T15:17:52.288Z,19.50
2018-04-27T15:20:19.870Z,13.87
2018-04-27T15:22:47.487Z,22.53
2018-04-27T15:25:15.076Z,17.20
2018-04-27T15:27:42.656Z,17.97
2018-04-27T15:30:10.261Z,34.00
2018-04-27T15:32:37.845Z,12.40
2018-04-27T15:35:05.415Z,19.77
2018-04-27T15:37:33.053Z,15.23
2018-04-27T15:40:00.658Z,24.87
2018-04-27T15:42:28.248Z,11.70
2018-04-27T15:44:55.855Z,29.00
2018-04-27T15:47:24.349Z,22.27
2018-04-27T15:49:52.024Z,15.20
2018-04-27T15:52:19.665Z,15.17
2018-04-27T15:54:47.240Z,18.93
2018-04-27T15:57:14.819Z,18.53
2018-04-27T15:59:42.436Z,15.03
2018-04-27T16:02:10.167Z,15.10
2018-04-27T16:04:37.738Z,10.33
2018-04-27T16:07:05.339Z,18.53
2018-04-27T16:09:32.958Z,24.00
2018-04-27T16:12:00.543Z,15.80
2018-04-27T16:14:28.160Z,19.73
2018-04-27T16:16:55.808Z,15.40
2018-04-27T16:19:23.414Z,18.97
2018-04-27T16:21:51.020Z,14.17
2018-04-27T16:24:18.625Z,14.17
2018-04-27T16:26:46.189Z,11.83
2018-04-27T16:29:13.787Z,31.07
2018-04-27T16:31:42.277Z,22.80
2018-04-27T16:34:09.851Z,30.90
2018-04-27T16:36:37.468Z,26.40
2018-04-27T16:39:05.105Z,19.90
2018-04-27T16:41:32.679Z,28.00
2018-04-27T16:44:00.304Z,28.13
2018-04-27T16:46:27.918Z,22.80
2018-04-27T16:48:55.557Z,24.30
2018-04-27T16:51:23.181Z,18.67
2018-04-27T16:53:50.763Z,25.53
2018-04-27T16:56:18.350Z,21.40
2018-04-27T16:58:45.980Z,32.47
2018-04-27T17:01:13.594Z,32.00
2018-04-27T17:03:41.236Z,19.87
2018-04-27T17:06:08.868Z,16.40
2018-04-27T17:08:36.445Z,16.13
2018-04-27T17:11:04.024Z,15.60
2018-04-27T17:13:31.699Z,16.50
2018-04-27T17:15:59.263Z,20.30
2018-04-27T17:18:26.885Z,21.03
2018-04-27T17:20:54.511Z,39.03
2018-04-27T17:23:22.113Z,29.20
2018-04-27T17:25:49.682Z,25.23
2018-04-27T17:28:17.290Z,33.57
2018-04-27T17:30:44.910Z,26.20
2018-04-27T17:33:13.246Z,19.17
2018-04-27T17:35:40.915Z,19.30
2018-04-27T17:38:08.583Z,50.40
2018-04-27T17:40:36.172Z,36.67
2018-04-27T17:43:03.784Z,56.07
2018-04-27T17:45:31.362Z,32.67
2018-04-27T17:47:58.937Z,24.67
2018-04-27T17:50:26.554Z,53.70
2018-04-27T17:52:54.150Z,47.90
2018-04-27T17:55:21.750Z,64.83
2018-04-27T17:57:49.374Z,25.23
2018-04-27T18:00:17.088Z,31.30
2018-04-27T18:02:44.662Z,27.50
2018-04-27T18:05:12.272Z,51.93
2018-04-27T18:07:39.852Z,38.20
2018-04-27T18:10:07.424Z,25.73
2018-04-27T18:12:35.042Z,20.00
2018-04-27T18:15:02.623Z,24.40
2018-04-27T18:17:30.297Z,19.53
2018-04-27T18:19:57.921Z,24.80
2018-04-27T18:22:25.508Z,24.73
2018-04-27T18:24:53.095Z,29.93
2018-04-27T18:27:20.720Z,27.33
2018-04-27T18:29:48.340Z,37.40
2018-04-27T18:32:15.933Z,24.37
2018-04-27T18:34:43.541Z,25.03
2018-04-27T18:37:11.127Z,20.90
2018-04-27T18:39:38.741Z,25.97
2018-04-27T18:42:06.369Z,41.40
2018-04-27T18:44:33.970Z,19.97
2018-04-27T18:47:01.540Z,40.87
2018-04-27T18:49:29.162Z,25.27
2018-04-27T18:51:56.757Z,27.60
2018-04-27T18:54:24.339Z,34.43
2018-04-27T18:56:52.085Z,32.47
2018-04-27T18:59:19.670Z,27.20
2018-04-27T19:01:47.289Z,50.93
2018-04-27T19:04:15.782Z,41.10
2018-04-27T19:06:43.400Z,32.70
2018-04-27T19:09:11.006Z,30.00
2018-04-27T19:11:41.208Z,32.07
2018-04-27T19:14:08.884Z,26.50
2018-04-27T19:16:36.531Z,28.33
2018-04-27T19:19:04.149Z,34.50
2018-04-27T19:21:31.802Z,40.97
2018-04-27T19:23:59.384Z,35.70
2018-04-27T19:26:27.154Z,41.20
2018-04-27T19:28:54.798Z,43.17
2018-04-27T19:31:22.381Z,25.47
2018-04-27T19:33:52.711Z,35.87
2018-04-27T19:36:20.285Z,29.17
2018-04-27T19:38:47.934Z,44.40
2018-04-27T19:41:15.569Z,33.20
2018-04-27T19:43:43.168Z,37.57
2018-04-27T19:46:10.793Z,42.60
2018-04-27T19:48:38.410Z,42.23
2018-04-27T19:51:06.028Z,41.40
2018-04-27T19:53:33.662Z,31.50
2018-04-27T19:56:01.300Z,33.30
2018-04-27T19:58:28.893Z,24.77
2018-04-27T20:00:56.556Z,34.77
2018-04-27T20:03:24.165Z,38.67
2018-04-27T20:05:51.848Z,48.90
2018-04-27T20:08:22.418Z,39.80
2018-04-27T20:10:50.313Z,33.13
2018-04-27T20:13:18.501Z,36.77
2018-04-27T20:15:49.710Z,26.93
2018-04-27T20:18:26.268Z,29.00
2018-04-27T20:20:53.942Z,32.30
2018-04-27T20:23:22.366Z,28.00
2018-04-27T20:25:50.920Z,40.23
2018-04-27T20:28:18.585Z,28.40
2018-04-27T20:30:46.219Z,31.40
2018-04-27T20:33:14.615Z,34.57
2018-04-27T20:35:42.317Z,45.97
2018-04-27T20:38:20.710Z,30.80
2018-04-27T20:40:48.476Z,38.23
2018-04-27T20:43:16.963Z,26.23
2018-04-27T20:45:44.674Z,41.53
2018-04-27T20:48:12.559Z,50.17
2018-04-27T20:50:40.230Z,43.30
2018-04-27T20:53:07.899Z,27.73
2018-04-27T20:55:36.216Z,36.13
2018-04-27T20:58:03.810Z,38.40
2018-04-27T21:00:31.489Z,30.67
2018-04-27T21:02:59.182Z,44.10
2018-04-27T21:05:27.615Z,30.03
2018-04-27T21:07:55.213Z,41.00
2018-04-27T21:10:22.903Z,33.93
2018-04-27T21:12:51.490Z,27.70
2018-04-27T21:15:19.097Z,25.13
2018-04-27T21:17:49.531Z,49.07
2018-04-27T21:20:17.937Z,36.00
2018-04-27T21:22:45.566Z,46.07
2018-04-27T21:25:13.279Z,61.83
2018-04-27T21:27:43.348Z,53.17
2018-04-27T21:30:11.005Z,76.83
2018-04-27T21:32:38.659Z,31.37
2018-04-27T21:35:06.320Z,48.83
2018-04-27T21:37:34.002Z,62.53
2018-04-27T21:40:01.868Z,45.90
2018-04-27T21:42:29.501Z,47.33
2018-04-27T21:44:57.189Z,30.47
2018-04-27T21:47:37.962Z,31.80
2018-04-27T21:50:06.475Z,41.77
2018-04-27T21:52:36.944Z,32.27
2018-04-27T21:55:05.332Z,78.53
2018-04-27T22:00:40.143Z,32.33
2018-04-27T22:03:14.560Z,32.50
2018-04-27T22:05:49.867Z,38.80
2018-04-27T22:08:23.152Z,40.97
2018-04-27T22:10:50.801Z,59.87
2018-04-27T22:13:19.436Z,55.20
2018-04-27T22:15:47.114Z,43.17
2018-04-27T22:18:14.741Z,30.13
2018-04-27T22:20:45.088Z,41.07
2018-04-27T22:23:12.811Z,36.70
2018-04-27T22:25:42.244Z,31.40
2018-04-27T22:28:09.896Z,32.87
2018-04-27T22:30:38.592Z,31.90
2018-04-27T22:36:45.596Z,38.83
2018-04-27T22:39:26.788Z,31.00
2018-04-27T22:42:10.200Z,32.93
2018-04-27T22:44:45.525Z,32.83
2018-04-27T22:47:17.963Z,43.90
2018-04-27T22:49:45.598Z,33.63
2018-04-27T22:52:13.187Z,32.03
2018-04-27T22:54:47.638Z,35.90
2018-04-27T22:57:31.619Z,26.37
2018-04-27T22:59:59.290Z,31.97
2018-04-27T23:02:27.835Z,33.27
2018-04-27T23:04:58.173Z,34.07
2018-04-27T23:07:36.539Z,38.67
2018-04-27T23:10:04.251Z,32.77
2018-04-27T23:12:33.507Z,37.37
2018-04-27T23:15:01.156Z,33.70
2018-04-27T23:17:28.860Z,35.60
2018-04-27T23:19:57.323Z,36.87
2018-04-27T23:22:42.064Z,31.00
2018-04-27T23:25:25.466Z,32.07
2018-04-27T23:27:53.105Z,40.57
2018-04-27T23:30:21.563Z,30.10
2018-04-27T23:32:49.286Z,41.97
2018-04-27T23:35:17.003Z,25.53
2018-04-27T23:37:44.602Z,32.90
2018-04-27T23:40:12.256Z,38.10
2018-04-27T23:42:39.972Z,37.03
2018-04-27T23:45:08.427Z,29.13
2018-04-27T23:47:36.029Z,30.73
2018-04-27T23:50:03.648Z,30.80
2018-04-27T23:52:31.233Z,27.77
2018-04-27T23:54:58.834Z,28.73
2018-04-27T23:57:26.516Z,30.07
2018-04-27T23:59:54.158Z,28.60
